Time;durP1;ratioP1;P1;durP2;ratioP2;P2;SDS_P1;SDS_P2;PMS_P1;PMS_P2;Temp;Humidity;BMP_temperature;BMP_pressure;BME280_temperature;BME280_humidity;BME280_pressure;Samples;Min_cycle;Max_cycle;Signal;HPM_P1;HPM_P2
2022/08/23 00:01:33;;;;;;;19.15;11.43;;;;;;;20.93;56.11;100582.47;5016207;28;20581;-75
2022/08/23 00:04:05;;;;;;;16.10;11.82;;;;;;;20.90;56.00;100596.38;5016317;28;20068;-74
2022/08/23 00:06:31;;;;;;;17.88;11.48;;;;;;;20.89;56.22;100594.69;5032754;28;20060;-74
2022/08/23 00:08:58;;;;;;;17.85;10.88;;;;;;;20.88;56.42;100593.00;5032539;28;20049;-73
2022/08/23 00:11:34;;;;;;;15.20;11.43;;;;;;;20.82;56.66;100585.47;5033748;28;20041;-73
2022/08/23 00:14:09;;;;;;;20.92;10.93;;;;;;;20.83;56.46;100601.59;5032499;28;20076;-75
2022/08/23 00:16:36;;;;;;;15.85;11.73;;;;;;;20.82;56.50;100599.91;5034417;28;20056;-75
2022/08/23 00:19:04;;;;;;;16.88;11.63;;;;;;;20.73;56.97;100589.13;5015962;28;20095;-75
2022/08/23 00:21:30;;;;;;;14.83;12.17;;;;;;;20.72;56.67;100587.41;4999244;28;20041;-74
2022/08/23 00:23:56;;;;;;;19.20;11.75;;;;;;;20.78;56.79;100597.66;5015886;28;20049;-75
2022/08/23 00:26:22;;;;;;;12.93;11.43;;;;;;;20.74;56.96;100602.56;5032243;28;20038;-75
2022/08/23 00:28:48;;;;;;;26.52;11.98;;;;;;;20.68;56.98;100613.19;5015592;28;20041;-75
2022/08/23 00:31:16;;;;;;;17.42;11.68;;;;;;;20.66;57.05;100617.94;5032124;28;20049;-75
2022/08/23 00:33:42;;;;;;;20.73;11.75;;;;;;;20.65;57.30;100613.50;5015489;28;20048;-74
2022/08/23 00:36:08;;;;;;;18.05;12.13;;;;;;;20.66;57.32;100613.38;5015915;28;20045;-74
2022/08/23 00:38:34;;;;;;;20.27;12.10;;;;;;;20.62;57.36;100614.69;5015643;28;20053;-75
2022/08/23 00:41:01;;;;;;;18.23;12.38;;;;;;;20.54;57.32;100612.75;5032021;28;20076;-74
2022/08/23 00:49:32;;;;;;;23.77;15.10;;;;;;;20.08;59.21;100617.38;5031583;28;20053;-73
2022/08/23 00:52:07;;;;;;;23.95;17.05;;;;;;;20.03;59.32;100627.81;5015089;28;20041;-75
2022/08/23 00:54:35;;;;;;;24.98;17.98;;;;;;;19.89;60.00;100620.19;5015475;28;20045;-74
2022/08/23 00:57:06;;;;;;;35.72;18.83;;;;;;;19.77;60.68;100632.25;5031820;28;20044;-75
2022/08/23 00:59:33;;;;;;;26.55;18.23;;;;;;;19.68;60.83;100628.59;4999233;28;20139;-74
2022/08/23 01:02:00;;;;;;;28.85;21.20;;;;;;;19.60;60.96;100614.91;5032820;28;20045;-75
2022/08/23 01:04:35;;;;;;;34.38;25.77;;;;;;;19.69;60.86;100633.00;5015123;28;20045;-75
2022/08/23 01:07:08;;;;;;;38.17;26.45;;;;;;;19.72;60.77;100634.56;4999335;28;20489;-75
2022/08/23 01:09:36;;;;;;;32.75;24.63;;;;;;;19.81;60.61;100642.66;5031639;28;20124;-76
2022/08/23 01:12:13;;;;;;;29.58;23.75;;;;;;;19.91;60.45;100639.03;5031668;28;20042;-75
2022/08/23 01:14:48;;;;;;;42.33;24.77;;;;;;;19.92;60.41;100644.31;5015892;28;20164;-75
2022/08/23 01:17:40;;;;;;;28.80;23.75;;;;;;;19.86;60.39;100637.63;5014870;28;20535;-76
2022/08/23 01:20:14;;;;;;;34.03;25.10;;;;;;;19.93;60.51;100640.56;5015170;28;20048;-75
2022/08/23 01:22:53;;;;;;;36.58;27.08;;;;;;;19.94;60.67;100646.88;5015434;28;20133;-75
2022/08/23 01:25:21;;;;;;;35.30;26.77;;;;;;;19.96;60.78;100647.56;5031770;28;20124;-75
2022/08/23 01:27:48;;;;;;;32.25;26.55;;;;;;;19.95;60.73;100654.00;5031549;28;20046;-75
2022/08/23 01:30:19;;;;;;;32.92;26.58;;;;;;;19.92;61.02;100649.72;5015237;28;20136;-74
2022/08/23 01:32:55;;;;;;;36.03;28.27;;;;;;;19.91;61.12;100658.03;4998806;28;20388;-75
2022/08/23 01:35:39;;;;;;;44.35;30.55;;;;;;;20.01;61.26;100658.81;4998600;28;20050;-75
2022/08/23 01:38:06;;;;;;;46.22;35.67;;;;;;;20.06;60.85;100657.38;5015062;28;20073;-75
2022/08/23 01:40:33;;;;;;;39.58;34.88;;;;;;;20.08;61.06;100657.22;5015276;28;20056;-74
2022/08/23 01:43:00;;;;;;;46.63;32.88;;;;;;;20.08;61.34;100660.81;4998671;28;20149;-76
2022/08/23 01:45:28;;;;;;;37.22;32.15;;;;;;;20.09;61.57;100658.94;5031328;28;20077;-75
2022/08/23 01:47:55;;;;;;;49.42;36.05;;;;;;;20.12;61.66;100667.63;5014630;28;20069;-76
2022/08/23 01:50:22;;;;;;;48.33;34.95;;;;;;;20.10;61.51;100652.50;5030920;28;20134;-75
2022/08/23 01:52:48;;;;;;;45.00;32.85;;;;;;;20.12;61.85;100672.19;5014744;28;20453;-75
2022/08/23 01:55:18;;;;;;;40.42;31.75;;;;;;;20.03;61.88;100660.38;4998764;28;20139;-75
2022/08/23 01:57:47;;;;;;;31.45;25.27;;;;;;;20.13;61.67;100658.47;5014842;28;20057;-75
2022/08/23 02:00:13;;;;;;;33.63;23.10;;;;;;;20.15;61.23;100666.44;5014672;28;20048;-76
2022/08/23 02:02:40;;;;;;;32.13;21.75;;;;;;;20.22;61.37;100672.97;4998992;28;20388;-74
2022/08/23 02:05:09;;;;;;;27.27;21.88;;;;;;;20.18;61.31;100676.16;4998585;28;20038;-75
2022/08/23 02:07:35;;;;;;;31.08;21.27;;;;;;;20.11;61.46;100682.19;4998038;28;20114;-74
2022/08/23 02:10:05;;;;;;;29.30;20.67;;;;;;;19.99;61.79;100672.56;5014377;28;20042;-74
2022/08/23 02:12:32;;;;;;;29.27;21.58;;;;;;;19.92;62.06;100676.88;5030894;28;20053;-76
2022/08/23 02:15:28;;;;;;;31.83;21.52;;;;;;;19.90;61.96;100684.31;5017731;28;20127;-74
2022/08/23 02:17:54;;;;;;;27.88;18.88;;;;;;;19.98;61.74;100684.41;5032160;28;20393;-75
2022/08/23 02:20:20;;;;;;;21.30;16.05;;;;;;;19.97;61.46;100687.28;5014686;28;20046;-76
2022/08/23 02:22:46;;;;;;;37.40;22.50;;;;;;;20.00;61.54;100689.69;5014256;28;20038;-75
2022/08/23 02:25:12;;;;;;;24.15;15.32;;;;;;;20.06;61.44;100686.38;5030580;28;20049;-75
2022/08/23 02:27:38;;;;;;;22.60;17.48;;;;;;;20.03;61.38;100684.81;5030598;28;20033;-74
2022/08/23 02:30:04;;;;;;;27.73;19.90;;;;;;;20.00;61.65;100682.41;5000258;28;20057;-74
2022/08/23 02:32:30;;;;;;;33.65;20.77;;;;;;;19.97;61.80;100682.72;5001360;28;20041;-73
2022/08/23 02:34:57;;;;;;;27.33;21.00;;;;;;;19.97;61.93;100684.56;5034187;28;20120;-74
2022/08/23 02:37:22;;;;;;;33.05;18.67;;;;;;;20.00;61.81;100690.53;5034213;28;20168;-74
2022/08/23 02:39:49;;;;;;;30.90;17.88;;;;;;;20.04;61.78;100697.38;5001446;28;20042;-77
2022/08/23 02:42:16;;;;;;;24.58;15.93;;;;;;;20.04;61.23;100696.53;5017814;28;20169;-74
2022/08/23 02:44:43;;;;;;;22.73;14.98;;;;;;;20.11;60.89;100698.47;5033891;28;20056;-74
2022/08/23 02:47:10;;;;;;;16.58;13.02;;;;;;;20.20;60.42;100693.13;5001347;28;20106;-75
2022/08/23 02:49:40;;;;;;;23.17;14.23;;;;;;;20.31;59.96;100701.06;5017245;28;20145;-75
2022/08/23 02:52:06;;;;;;;21.42;12.93;;;;;;;20.36;59.98;100702.34;5001035;28;20500;-74
2022/08/23 02:54:33;;;;;;;28.50;13.70;;;;;;;20.42;59.66;100703.56;5033967;28;20055;-76
2022/08/23 02:56:59;;;;;;;21.92;13.43;;;;;;;20.46;59.62;100706.84;5017684;28;20068;-75
2022/08/23 02:59:25;;;;;;;26.05;13.73;;;;;;;20.51;59.43;100710.84;5001342;28;20045;-74
2022/08/23 03:01:51;;;;;;;25.67;14.25;;;;;;;20.39;59.41;100701.19;5033810;28;20433;-73
2022/08/23 03:04:24;;;;;;;27.75;14.68;;;;;;;20.37;59.46;100704.03;5017110;28;20564;-74
2022/08/23 03:06:50;;;;;;;25.45;15.20;;;;;;;20.41;59.23;100710.03;5016864;28;20136;-73
2022/08/23 03:09:16;;;;;;;27.95;17.08;;;;;;;20.42;59.07;100711.72;5038684;28;20049;-73
2022/08/23 03:11:45;;;;;;;31.40;18.48;;;;;;;20.23;59.76;100717.28;5039716;28;20111;-74
2022/08/23 03:14:12;;;;;;;29.63;18.55;;;;;;;20.22;59.81;100710.16;5017156;28;20060;-75
2022/08/23 03:16:39;;;;;;;29.40;19.55;;;;;;;20.36;59.72;100717.78;5001100;28;20049;-74
2022/08/23 03:19:05;;;;;;;30.02;19.30;;;;;;;20.47;59.35;100720.28;5033197;28;20499;-75
2022/08/23 03:21:31;;;;;;;23.70;17.40;;;;;;;20.60;59.11;100726.22;5033355;28;20045;-86
2022/08/23 03:23:57;;;;;;;25.77;16.70;;;;;;;20.77;58.83;100723.69;5001253;28;20065;-75
2022/08/23 03:26:23;;;;;;;25.17;15.98;;;;;;;20.93;58.45;100725.69;5034611;28;20048;-74
2022/08/23 03:28:50;;;;;;;35.05;15.35;;;;;;;21.06;58.13;100724.28;5033527;28;20128;-75
2022/08/23 03:31:16;;;;;;;23.67;14.43;;;;;;;21.20;57.54;100725.56;5017001;28;20426;-80
2022/08/23 03:34:02;;;;;;;23.73;14.18;;;;;;;21.30;57.40;100728.22;5019209;28;20045;-75
2022/08/23 03:36:28;;;;;;;23.70;14.10;;;;;;;21.40;56.81;100719.97;5033289;28;20091;-75
2022/08/23 03:38:55;;;;;;;32.30;15.73;;;;;;;21.49;56.56;100727.19;5016967;28;20041;-75
2022/08/23 03:41:21;;;;;;;27.20;14.13;;;;;;;21.55;56.90;100724.69;4999400;28;20049;-78
2022/08/23 03:43:47;;;;;;;25.95;13.45;;;;;;;21.51;56.24;100726.03;5033003;28;20076;-74
2022/08/23 03:46:21;;;;;;;21.33;13.95;;;;;;;21.64;56.33;100727.47;5016414;28;20081;-75
2022/08/23 03:48:55;;;;;;;22.65;13.70;;;;;;;21.73;55.94;100734.66;5015975;28;20053;-75
2022/08/23 03:51:24;;;;;;;20.67;13.63;;;;;;;21.80;56.08;100732.97;5015681;28;20044;-76
2022/08/23 03:53:50;;;;;;;21.90;13.30;;;;;;;21.91;55.75;100743.59;5017198;28;20068;-75
2022/08/23 03:56:26;;;;;;;21.60;13.88;;;;;;;22.07;55.35;100749.13;5000114;28;20053;-75
2022/08/23 03:58:53;;;;;;;21.65;12.98;;;;;;;22.06;55.14;100736.53;4999903;28;20144;-75
2022/08/23 04:01:19;;;;;;;23.15;13.65;;;;;;;22.17;55.15;100742.72;5016762;28;20124;-77
2022/08/23 04:03:47;;;;;;;19.08;12.60;;;;;;;22.27;54.70;100747.03;5033722;28;20045;-76
2022/08/23 04:06:14;;;;;;;20.30;12.65;;;;;;;22.32;54.66;100741.09;5033295;28;20060;-76
2022/08/23 04:08:42;;;;;;;18.42;12.57;;;;;;;22.32;54.59;100745.69;5017305;28;20072;-75
2022/08/23 04:11:10;;;;;;;23.60;13.00;;;;;;;22.25;55.23;100740.03;5016813;28;20449;-75
2022/08/23 04:13:39;;;;;;;25.17;12.88;;;;;;;22.37;54.73;100746.03;5015959;28;20080;-75
2022/08/23 04:16:06;;;;;;;27.90;13.50;;;;;;;22.39;54.41;100731.25;5032049;28;20045;-75
2022/08/23 04:18:38;;;;;;;25.02;13.02;;;;;;;22.55;54.50;100747.63;4999037;28;20488;-75
2022/08/23 04:21:09;;;;;;;20.35;12.57;;;;;;;22.63;53.79;100727.72;5032161;28;20094;-75
2022/08/23 04:23:38;;;;;;;17.25;12.18;;;;;;;22.74;53.52;100735.56;5032206;28;20460;-76
2022/08/23 04:26:05;;;;;;;29.20;13.18;;;;;;;22.84;53.44;100749.06;5031931;28;20064;-75
2022/08/23 04:28:33;;;;;;;22.42;12.95;;;;;;;22.98;53.15;100742.97;4999758;28;20515;-75
2022/08/23 04:31:03;;;;;;;28.13;12.85;;;;;;;23.17;53.19;100741.78;5032302;28;20397;-75
2022/08/23 04:33:31;;;;;;;26.03;13.20;;;;;;;23.36;52.64;100740.59;5015291;28;20119;-74
2022/08/23 04:35:59;;;;;;;24.67;13.00;;;;;;;23.43;52.21;100741.63;5015608;28;20037;-75
2022/08/23 04:38:27;;;;;;;19.67;12.77;;;;;;;23.46;51.85;100740.41;5015623;28;20393;-75
2022/08/23 04:43:43;;;;;;;18.48;12.20;;;;;;;23.43;52.10;100741.63;5031935;28;20050;-75
2022/08/23 04:46:14;;;;;;;19.40;13.02;;;;;;;23.39;52.43;100742.94;5015357;28;20523;-74
2022/08/23 04:48:41;;;;;;;24.30;13.07;;;;;;;23.49;52.03;100745.50;4998844;28;20045;-74
2022/08/23 04:51:08;;;;;;;24.17;13.75;;;;;;;23.57;52.23;100741.91;5015129;28;20076;-75
2022/08/23 04:53:36;;;;;;;;;;;;;;;23.77;51.51;100740.56;5032046;28;20124;-74
2022/08/23 04:56:29;;;;;;;18.73;12.13;;;;;;;23.85;51.64;100740.53;5023794;28;19923;-74
2022/08/23 04:58:55;;;;;;;16.80;11.80;;;;;;;24.05;51.10;100746.44;5015364;28;20041;-75
2022/08/23 05:01:23;;;;;;;14.70;11.80;;;;;;;24.10;50.68;100726.78;4998989;28;20407;-75
2022/08/23 05:03:49;;;;;;;19.73;11.53;;;;;;;24.12;50.15;100733.78;4998680;28;20041;-74
2022/08/23 05:06:15;;;;;;;24.10;12.52;;;;;;;24.35;49.77;100742.03;5031795;28;20048;-74
2022/08/23 05:08:41;;;;;;;25.15;13.05;;;;;;;24.42;50.12;100732.13;5015725;28;20443;-74
2022/08/23 05:11:10;;;;;;;26.08;14.20;;;;;;;24.61;49.91;100743.66;5031590;28;20139;-76
2022/08/23 05:13:37;;;;;;;20.88;12.57;;;;;;;24.65;49.22;100725.84;5033093;28;20049;-75
2022/08/23 05:16:05;;;;;;;21.75;12.80;;;;;;;24.79;48.76;100737.91;5015395;28;20041;-75
2022/08/23 05:18:35;;;;;;;17.92;12.13;;;;;;;24.73;48.27;100730.41;4999092;28;20081;-75
2022/08/23 05:21:01;;;;;;;23.83;13.20;;;;;;;24.65;48.84;100745.00;5031189;28;20493;-75
2022/08/23 05:23:27;;;;;;;20.60;12.15;;;;;;;24.69;48.88;100728.03;5031211;28;20087;-75
2022/08/23 05:26:00;;;;;;;27.08;12.55;;;;;;;24.87;48.51;100735.09;5031615;28;20430;-76
2022/08/23 05:28:38;;;;;;;25.75;13.25;;;;;;;25.04;48.28;100736.66;4999864;28;20041;-74
2022/08/23 05:31:11;;;;;;;21.30;12.98;;;;;;;25.16;47.66;100737.13;5031281;28;20045;-74
2022/08/23 05:33:43;;;;;;;23.10;12.95;;;;;;;25.21;47.84;100734.69;5015086;28;20417;-75
2022/08/23 05:36:11;;;;;;;25.40;12.93;;;;;;;25.36;47.69;100735.59;5015018;28;20046;-74
2022/08/23 05:38:38;;;;;;;32.35;13.63;;;;;;;25.54;47.30;100742.59;4998635;28;20041;-76
2022/08/23 05:41:05;;;;;;;25.20;12.70;;;;;;;25.54;46.53;100737.09;5031465;28;20437;-74
2022/08/23 05:43:32;;;;;;;28.02;13.25;;;;;;;25.68;47.05;100733.53;5032728;28;20563;-74
2022/08/23 05:46:09;;;;;;;30.35;13.05;;;;;;;25.85;46.23;100740.59;4998547;28;20041;-75
2022/08/23 05:48:45;;;;;;;24.85;12.95;;;;;;;25.90;45.56;100729.91;5015524;28;20136;-74
2022/08/23 05:51:15;;;;;;;22.02;12.75;;;;;;;25.93;46.04;100734.16;5031224;28;20037;-74
2022/08/23 05:53:42;;;;;;;21.58;13.63;;;;;;;26.03;45.68;100733.91;5014201;28;20076;-75
2022/08/23 05:56:14;;;;;;;30.98;13.55;;;;;;;26.28;45.49;100735.25;5014762;28;20111;-74
2022/08/23 05:58:41;;;;;;;22.45;13.35;;;;;;;26.62;45.23;100722.84;4998814;28;20490;-75
2022/08/23 06:01:09;;;;;;;26.52;13.57;;;;;;;26.77;44.47;100731.84;5014897;28;20049;-75
2022/08/23 06:03:35;;;;;;;22.33;12.90;;;;;;;26.79;44.06;100735.28;4997945;28;20103;-76
2022/08/23 06:06:03;;;;;;;24.23;12.68;;;;;;;26.87;43.49;100735.13;5034757;28;20049;-75
2022/08/23 06:08:28;;;;;;;22.58;13.15;;;;;;;26.94;43.82;100717.91;5034541;28;20543;-74
2022/08/23 06:11:02;;;;;;;16.63;12.25;;;;;;;27.29;42.81;100722.47;5034701;28;20057;-75
2022/08/23 06:13:36;;;;;;;16.45;12.23;;;;;;;27.31;42.36;100730.53;5034673;28;20041;-76
2022/08/23 06:16:04;;;;;;;18.25;12.10;;;;;;;27.51;42.44;100730.66;5034632;28;20042;-76
2022/08/23 06:18:30;;;;;;;17.90;12.38;;;;;;;27.63;41.10;100726.31;5034722;28;20045;-76
2022/08/23 06:21:10;;;;;;;19.73;12.57;;;;;;;27.57;41.23;100727.13;5018483;28;20064;-76
2022/08/23 06:23:43;;;;;;;27.80;12.15;;;;;;;27.50;40.59;100724.34;5034663;28;20045;-75
2022/08/23 06:26:15;;;;;;;21.13;12.27;;;;;;;27.68;41.03;100726.56;5017896;28;20535;-76
2022/08/23 06:28:45;;;;;;;23.90;12.00;;;;;;;27.71;40.38;100723.41;5001931;28;20041;-75
2022/08/23 06:31:11;;;;;;;15.57;11.20;;;;;;;27.89;39.57;100719.34;5001396;28;20536;-76
2022/08/23 06:33:42;;;;;;;17.33;11.57;;;;;;;28.04;39.42;100717.31;5002336;28;20041;-77
2022/08/23 06:36:27;;;;;;;22.25;10.43;;;;;;;28.45;39.12;100730.19;5034293;28;20038;-76
2022/08/23 06:39:12;;;;;;;19.10;10.98;;;;;;;28.62;38.48;100722.41;5003701;28;20501;-75
2022/08/23 06:42:08;;;;;;;13.27;10.40;;;;;;;28.80;38.03;100720.75;5003882;28;20131;-76
2022/08/23 06:44:41;;;;;;;18.27;10.25;;;;;;;29.02;37.58;100721.47;5018851;28;20142;-75
2022/08/23 06:47:25;;;;;;;14.15;10.00;;;;;;;29.01;37.45;100716.19;5020193;28;20049;-74
2022/08/23 06:49:51;;;;;;;19.02;10.98;;;;;;;29.06;37.91;100719.16;5017940;28;20057;-76
2022/08/23 06:52:27;;;;;;;18.73;10.60;;;;;;;29.31;37.57;100702.84;5033827;28;20138;-76
2022/08/23 06:54:58;;;;;;;13.43;10.07;;;;;;;29.11;37.67;100721.25;5033815;28;20073;-75
2022/08/23 06:57:25;;;;;;;20.60;10.98;;;;;;;28.87;38.15;100714.44;5033845;28;20080;-75
2022/08/23 07:00:23;;;;;;;18.17;10.27;;;;;;;28.93;38.05;100725.47;5011798;28;20059;-76
2022/08/23 07:02:56;;;;;;;17.73;9.55;;;;;;;29.12;38.27;100718.31;5002102;28;20144;-77
2022/08/23 07:05:41;;;;;;;17.10;10.38;;;;;;;29.51;37.63;100720.19;5034986;28;20128;-76
2022/08/23 07:08:12;;;;;;;20.80;10.15;;;;;;;29.75;37.13;100710.47;5033994;28;20064;-76
2022/08/23 07:10:38;;;;;;;20.27;10.80;;;;;;;29.86;36.24;100722.72;5016891;28;20489;-76
2022/08/23 07:13:04;;;;;;;16.05;9.73;;;;;;;29.60;35.42;100715.38;5017650;28;20041;-75
2022/08/23 07:15:30;;;;;;;13.77;9.50;;;;;;;29.70;35.93;100715.75;5016071;28;20515;-76
2022/08/23 07:17:56;;;;;;;13.02;9.40;;;;;;;29.60;35.51;100715.38;5017173;28;20507;-76
2022/08/23 07:20:22;;;;;;;16.92;9.65;;;;;;;29.49;36.30;100716.00;5033244;28;20045;-77
2022/08/23 07:22:48;;;;;;;13.32;10.20;;;;;;;29.47;35.80;100709.81;5000534;28;20396;-76
2022/08/23 07:25:14;;;;;;;14.18;9.95;;;;;;;29.64;35.82;100713.00;5033240;28;20045;-77
2022/08/23 07:27:43;;;;;;;16.23;10.00;;;;;;;29.88;35.17;100705.97;5033171;28;20485;-75
2022/08/23 07:30:09;;;;;;;21.25;10.43;;;;;;;30.15;34.78;100712.25;5033180;28;20111;-76
2022/08/23 07:32:39;;;;;;;17.63;10.05;;;;;;;30.26;34.15;100700.56;5016951;28;20070;-74
2022/08/23 07:35:27;;;;;;;13.73;9.55;;;;;;;30.56;34.55;100698.06;5016591;28;20037;-76
2022/08/23 07:37:57;;;;;;;;;;;;;;;30.76;33.94;100699.88;5033580;28;20048;-75
2022/08/23 07:40:28;;;;;;;15.82;9.98;;;;;;;30.75;33.51;100695.44;5049741;28;19960;-76
2022/08/23 07:42:57;;;;;;;19.42;10.10;;;;;;;30.87;33.32;100699.19;5033252;28;20076;-76
2022/08/23 07:45:23;;;;;;;15.43;10.30;;;;;;;30.95;33.37;100701.66;5016549;28;20048;-76
2022/08/23 07:47:51;;;;;;;14.45;10.25;;;;;;;30.98;32.48;100701.22;5032999;28;20083;-75
2022/08/23 07:50:17;;;;;;;16.98;10.60;;;;;;;30.54;32.69;100689.19;5016278;28;20057;-75
2022/08/23 07:52:44;;;;;;;17.20;10.98;;;;;;;30.63;33.00;100678.72;5032447;28;20081;-75
2022/08/23 07:55:10;;;;;;;15.13;10.60;;;;;;;30.84;32.76;100688.56;5016571;28;20033;-77
2022/08/23 07:57:56;;;;;;;13.75;10.30;;;;;;;31.17;32.46;100672.59;5032879;28;20049;-75
2022/08/23 08:00:45;;;;;;;20.13;10.95;;;;;;;31.55;31.74;100679.91;5019306;28;20111;-75
2022/08/23 08:03:31;;;;;;;18.15;10.80;;;;;;;31.19;31.68;100687.03;5032336;28;20053;-76
2022/08/23 08:06:13;;;;;;;26.75;11.48;;;;;;;30.94;31.87;100677.88;5015944;28;20044;-75
2022/08/23 08:08:40;;;;;;;12.88;10.23;;;;;;;31.06;31.30;100675.25;5016587;28;20052;-75
2022/08/23 08:11:09;;;;;;;18.02;10.63;;;;;;;31.18;30.67;100674.31;5015819;28;20041;-75
2022/08/23 08:13:41;;;;;;;17.08;10.38;;;;;;;31.21;30.77;100673.81;5016235;28;20048;-75
2022/08/23 08:16:09;;;;;;;15.88;11.45;;;;;;;31.61;30.35;100667.94;5033861;28;20045;-76
2022/08/23 08:18:38;;;;;;;18.27;11.70;;;;;;;31.80;29.67;100666.03;5000404;28;20076;-76
2022/08/23 08:21:23;;;;;;;14.52;11.13;;;;;;;32.16;29.58;100667.16;5032598;28;20045;-75
2022/08/23 08:24:10;;;;;;;18.35;10.63;;;;;;;32.43;28.83;100667.66;5032344;28;20069;-75
2022/08/23 08:26:42;;;;;;;24.05;11.75;;;;;;;32.49;28.91;100658.38;5015237;28;20049;-75
2022/08/23 08:29:12;;;;;;;22.77;11.90;;;;;;;32.43;28.78;100664.88;5015528;28;20033;-77
2022/08/23 08:31:42;;;;;;;25.13;13.63;;;;;;;31.92;29.16;100653.16;4999524;28;20057;-75
2022/08/23 08:34:13;;;;;;;21.45;12.43;;;;;;;32.04;29.41;100656.00;5032100;28;20041;-75
2022/08/23 08:36:40;;;;;;;22.00;11.82;;;;;;;31.96;29.11;100664.59;5015422;28;20037;-75
2022/08/23 08:39:15;;;;;;;17.33;10.60;;;;;;;32.16;28.68;100659.69;5016277;28;20137;-77
2022/08/23 08:42:00;;;;;;;16.20;10.90;;;;;;;32.20;28.42;100660.06;5015722;28;20045;-77
2022/08/23 08:44:50;;;;;;;16.42;10.15;;;;;;;32.35;27.68;100656.88;4999025;28;20518;-76
2022/08/23 08:47:38;;;;;;;11.85;8.27;;;;;;;32.54;26.03;100658.56;5026000;28;20088;-75
2022/08/23 08:50:27;;;;;;;14.23;9.70;;;;;;;32.44;26.44;100657.41;5015270;28;20113;-76
2022/08/23 08:53:08;;;;;;;15.45;9.38;;;;;;;32.15;26.63;100663.50;5015366;28;20049;-75
2022/08/23 08:55:58;;;;;;;11.45;9.05;;;;;;;32.06;27.05;100653.00;5028746;28;20055;-75
2022/08/23 08:58:45;;;;;;;15.68;9.48;;;;;;;32.43;26.26;100658.50;5015357;28;20045;-76
2022/08/23 09:01:11;;;;;;;14.15;9.90;;;;;;;32.49;26.64;100641.78;5031564;28;20136;-76
2022/08/23 09:03:39;;;;;;;15.35;10.25;;;;;;;32.56;26.28;100648.06;4998784;28;20366;-76
2022/08/23 09:06:21;;;;;;;12.25;9.52;;;;;;;32.40;26.24;100652.34;5031815;28;20049;-75
2022/08/23 09:09:22;;;;;;;14.13;10.02;;;;;;;32.61;25.57;100651.00;5031862;28;20083;-76
2022/08/23 09:12:10;;;;;;;11.95;9.93;;;;;;;32.58;25.60;100640.38;5015509;28;20049;-76
2022/08/23 09:14:48;;;;;;;15.10;9.70;;;;;;;32.91;25.18;100639.00;4999096;28;20049;-75
2022/08/23 09:17:23;;;;;;;13.13;9.77;;;;;;;33.20;25.00;100630.88;5015365;28;20034;-76
2022/08/23 09:19:55;;;;;;;13.45;10.70;;;;;;;33.43;24.84;100641.09;5031550;28;20045;-78
2022/08/23 09:22:31;;;;;;;12.65;9.80;;;;;;;33.48;24.96;100633.78;5031575;28;20045;-75
2022/08/23 09:24:57;;;;;;;17.15;10.25;;;;;;;33.64;24.62;100636.91;5031775;28;20050;-76
2022/08/23 09:27:27;;;;;;;17.98;10.55;;;;;;;33.53;24.74;100656.09;5014938;28;20037;-77
2022/08/23 09:29:57;;;;;;;20.30;10.15;;;;;;;33.39;24.85;100634.38;5031305;28;20053;-77
2022/08/23 09:32:34;;;;;;;13.43;9.45;;;;;;;33.13;25.11;100637.38;5031197;28;20091;-76
2022/08/23 09:35:18;;;;;;;10.27;8.90;;;;;;;33.47;25.06;100632.09;4998860;28;20095;-75
2022/08/23 09:38:14;;;;;;;12.48;9.63;;;;;;;34.13;23.39;100645.75;5014841;28;20057;-76
2022/08/23 09:40:46;;;;;;;11.43;9.43;;;;;;;33.71;23.85;100637.63;5034724;28;20050;-75
2022/08/23 09:43:18;;;;;;;16.38;9.77;;;;;;;33.67;24.07;100636.44;5018727;28;20186;-76
2022/08/23 09:45:50;;;;;;;17.55;9.75;;;;;;;34.02;23.88;100631.66;5035178;28;20041;-76
2022/08/23 09:48:42;;;;;;;15.27;9.93;;;;;;;33.79;23.94;100635.31;5002635;28;20048;-76
2022/08/23 09:51:18;;;;;;;11.57;8.95;;;;;;;33.45;24.04;100631.47;5034933;28;20055;-76
2022/08/23 09:53:50;;;;;;;14.48;9.18;;;;;;;33.28;24.06;100633.28;5018466;28;20049;-75
2022/08/23 09:56:23;;;;;;;17.20;9.00;;;;;;;33.43;24.46;100628.09;5035379;28;20076;-76
2022/08/23 09:58:52;;;;;;;15.82;10.10;;;;;;;33.55;24.20;100640.06;5035016;28;20445;-75
2022/08/23 10:01:32;;;;;;;16.42;10.57;;;;;;;33.81;23.94;100627.59;5018438;28;20049;-75
2022/08/23 10:04:09;;;;;;;14.23;10.43;;;;;;;34.39;23.83;100627.66;5035034;28;20549;-77
2022/08/23 10:06:36;;;;;;;19.23;10.30;;;;;;;34.55;23.35;100616.59;5018681;28;20048;-75
2022/08/23 10:09:07;;;;;;;13.80;9.38;;;;;;;34.48;23.10;100621.44;5034887;28;20072;-75
2022/08/23 10:11:44;;;;;;;16.88;9.93;;;;;;;34.97;23.10;100618.97;5034657;28;20166;-76
2022/08/23 10:14:16;;;;;;;13.13;10.55;;;;;;;34.93;22.54;100611.41;5018150;28;20408;-76
2022/08/23 10:16:55;;;;;;;22.23;10.57;;;;;;;35.00;22.28;100631.56;5034818;28;20103;-75
2022/08/23 10:19:39;;;;;;;12.05;9.15;;;;;;;35.06;22.13;100607.50;5018382;28;20037;-75
2022/08/23 10:22:19;;;;;;;14.02;9.82;;;;;;;35.44;22.23;100607.50;5034764;28;20061;-74
2022/08/23 10:25:20;;;;;;;13.55;9.82;;;;;;;35.98;21.52;100607.69;5033536;28;20061;-76
2022/08/23 10:31:25;;;;;;;16.48;9.75;;;;;;;36.63;20.24;100617.03;5034263;28;20044;-75
2022/08/23 10:34:12;;;;;;;15.23;10.32;;;;;;;36.00;21.16;100618.59;5001883;28;20079;-75
2022/08/23 10:36:50;;;;;;;14.70;10.43;;;;;;;35.91;20.96;100606.19;5017624;28;20091;-76
2022/08/23 10:39:26;;;;;;;15.48;10.05;;;;;;;36.08;20.71;100614.50;5017501;28;20500;-76
2022/08/23 10:42:37;;;;;;;16.20;10.27;;;;;;;36.36;20.43;100608.66;5017969;28;20047;-75
2022/08/23 10:45:03;;;;;;;13.82;9.90;;;;;;;35.71;20.51;100601.22;5006585;28;20050;-75
2022/08/23 10:47:42;;;;;;;11.45;9.25;;;;;;;35.98;20.32;100621.59;5000951;28;20496;-75
2022/08/23 10:50:12;;;;;;;15.02;9.55;;;;;;;36.28;19.93;100622.22;5017304;28;20061;-75
2022/08/23 10:52:47;;;;;;;12.85;9.60;;;;;;;36.14;20.11;100611.47;5033627;28;20053;-75
2022/08/23 10:55:34;;;;;;;14.48;9.75;;;;;;;36.55;19.53;100613.88;5034101;28;20547;-75
2022/08/23 10:58:04;;;;;;;11.80;9.45;;;;;;;37.21;18.41;100603.31;5033889;28;20046;-76
2022/08/23 11:00:31;;;;;;;15.70;9.48;;;;;;;37.13;18.98;100603.81;5017268;28;20049;-75
2022/08/23 11:03:50;;;;;;;12.32;8.82;;;;;;;37.31;17.99;100602.53;5001270;28;20475;-75
2022/08/23 11:06:36;;;;;;;13.48;8.98;;;;;;;37.08;18.54;100606.56;5016114;28;20088;-76
2022/08/23 11:09:29;;;;;;;17.08;9.95;;;;;;;37.79;18.59;100608.94;5032814;28;20097;-75
2022/08/23 11:12:05;;;;;;;13.20;9.20;;;;;;;38.09;17.98;100608.25;5012417;28;20056;-74
2022/08/23 11:14:58;;;;;;;11.13;8.30;;;;;;;38.47;17.60;100592.16;5017024;28;20515;-75
2022/08/23 11:17:33;;;;;;;;;;;;;;;37.92;17.16;100596.47;5002518;28;20067;-75
2022/08/23 11:20:05;;;;;;;14.45;8.07;;;;;;;38.28;16.58;100598.22;5033438;28;19917;-75
2022/08/23 11:22:53;;;;;;;19.77;8.10;;;;;;;37.78;17.20;100585.78;5033517;28;20095;-75
2022/08/23 11:25:19;;;;;;;12.25;8.32;;;;;;;37.88;17.33;100585.84;5029298;28;20045;-75
2022/08/23 11:27:45;;;;;;;9.30;7.93;;;;;;;38.70;16.52;100591.59;5033024;28;20053;-75
2022/08/23 11:30:35;;;;;;;;;;;;;;;38.41;17.24;100588.53;5000930;28;20049;-74
2022/08/23 11:33:42;;;;;;;15.20;8.80;;;;;;;38.59;17.32;100589.91;5016832;28;19927;-74
2022/08/23 11:36:07;;;;;;;18.23;9.73;;;;;;;38.05;17.59;100584.78;5017195;28;20203;-75
2022/08/23 11:38:46;;;;;;;12.65;8.95;;;;;;;38.10;17.65;100582.00;5033148;28;20057;-77
2022/08/23 11:41:21;;;;;;;14.63;8.95;;;;;;;37.63;18.32;100588.50;4999756;28;20044;-75
2022/08/23 11:43:56;;;;;;;14.20;9.00;;;;;;;37.12;18.60;100577.88;5016394;28;20049;-75
2022/08/23 11:46:26;;;;;;;10.88;8.35;;;;;;;37.53;18.18;100582.88;5016384;28;20129;-75
2022/08/23 11:49:20;;;;;;;12.57;8.75;;;;;;;38.44;17.47;100578.72;5016335;28;20042;-75